sensor_id;sensor_type;location;lat;lon;timestamp;P1;durP1;ratioP1;P2;durP2;ratioP2
14965;SDS011;7577;45.226;5.798;2023-08-01T00:01:45;3.67;;;2.60;;
14965;SDS011;7577;45.226;5.798;2023-08-01T00:04:14;3.37;;;2.67;;
14965;SDS011;7577;45.226;5.798;2023-08-01T00:06:44;2.60;;;2.40;;
14965;SDS011;7577;45.226;5.798;2023-08-01T00:09:14;3.10;;;2.67;;
14965;SDS011;7577;45.226;5.798;2023-08-01T00:11:44;2.73;;;2.53;;
14965;SDS011;7577;45.226;5.798;2023-08-01T00:14:14;2.80;;;2.50;;
14965;SDS011;7577;45.226;5.798;2023-08-01T00:16:44;3.00;;;2.60;;
14965;SDS011;7577;45.226;5.798;2023-08-01T00:19:15;3.30;;;2.80;;
14965;SDS011;7577;45.226;5.798;2023-08-01T00:21:45;3.50;;;2.40;;
14965;SDS011;7577;45.226;5.798;2023-08-01T00:24:15;3.57;;;2.93;;
14965;SDS011;7577;45.226;5.798;2023-08-01T00:26:45;3.63;;;2.33;;
14965;SDS011;7577;45.226;5.798;2023-08-01T00:29:15;2.70;;;2.40;;
14965;SDS011;7577;45.226;5.798;2023-08-01T00:31:53;4.23;;;2.40;;
14965;SDS011;7577;45.226;5.798;2023-08-01T00:34:23;3.27;;;2.50;;
14965;SDS011;7577;45.226;5.798;2023-08-01T00:36:53;2.93;;;2.53;;
14965;SDS011;7577;45.226;5.798;2023-08-01T00:39:25;3.97;;;2.60;;
14965;SDS011;7577;45.226;5.798;2023-08-01T00:41:55;3.20;;;2.73;;
14965;SDS011;7577;45.226;5.798;2023-08-01T00:44:25;3.23;;;2.93;;
14965;SDS011;7577;45.226;5.798;2023-08-01T00:46:55;3.10;;;2.70;;
14965;SDS011;7577;45.226;5.798;2023-08-01T00:49:25;2.87;;;2.53;;
14965;SDS011;7577;45.226;5.798;2023-08-01T00:51:55;3.23;;;2.60;;
14965;SDS011;7577;45.226;5.798;2023-08-01T00:54:25;3.00;;;2.57;;
14965;SDS011;7577;45.226;5.798;2023-08-01T00:56:58;3.53;;;2.53;;
14965;SDS011;7577;45.226;5.798;2023-08-01T00:59:29;2.93;;;2.60;;
14965;SDS011;7577;45.226;5.798;2023-08-01T01:01:59;3.00;;;2.67;;
14965;SDS011;7577;45.226;5.798;2023-08-01T01:04:30;5.50;;;2.60;;
14965;SDS011;7577;45.226;5.798;2023-08-01T01:07:02;2.90;;;2.37;;
14965;SDS011;7577;45.226;5.798;2023-08-01T01:09:33;3.23;;;2.67;;
14965;SDS011;7577;45.226;5.798;2023-08-01T01:12:05;2.80;;;2.50;;
14965;SDS011;7577;45.226;5.798;2023-08-01T01:14:36;2.67;;;2.30;;
14965;SDS011;7577;45.226;5.798;2023-08-01T01:17:06;3.60;;;2.43;;
14965;SDS011;7577;45.226;5.798;2023-08-01T01:19:36;2.87;;;2.30;;
14965;SDS011;7577;45.226;5.798;2023-08-01T01:22:07;4.47;;;2.80;;
14965;SDS011;7577;45.226;5.798;2023-08-01T01:24:38;3.17;;;2.77;;
14965;SDS011;7577;45.226;5.798;2023-08-01T01:27:10;3.40;;;2.50;;
14965;SDS011;7577;45.226;5.798;2023-08-01T01:29:42;2.83;;;2.50;;
14965;SDS011;7577;45.226;5.798;2023-08-01T01:32:15;2.80;;;2.33;;
14965;SDS011;7577;45.226;5.798;2023-08-01T01:34:46;3.03;;;2.53;;
14965;SDS011;7577;45.226;5.798;2023-08-01T01:37:16;2.63;;;2.43;;
14965;SDS011;7577;45.226;5.798;2023-08-01T01:39:46;3.00;;;2.33;;
14965;SDS011;7577;45.226;5.798;2023-08-01T01:42:16;4.07;;;2.67;;
14965;SDS011;7577;45.226;5.798;2023-08-01T01:44:46;2.80;;;2.53;;
14965;SDS011;7577;45.226;5.798;2023-08-01T01:47:17;3.20;;;2.60;;
14965;SDS011;7577;45.226;5.798;2023-08-01T01:49:47;3.83;;;2.53;;
14965;SDS011;7577;45.226;5.798;2023-08-01T01:52:17;3.37;;;3.03;;
14965;SDS011;7577;45.226;5.798;2023-08-01T01:54:47;4.13;;;2.60;;
14965;SDS011;7577;45.226;5.798;2023-08-01T01:57:17;3.13;;;2.70;;
14965;SDS011;7577;45.226;5.798;2023-08-01T01:59:47;3.23;;;2.50;;
14965;SDS011;7577;45.226;5.798;2023-08-01T02:02:17;2.50;;;2.30;;
14965;SDS011;7577;45.226;5.798;2023-08-01T02:04:48;2.83;;;2.60;;
14965;SDS011;7577;45.226;5.798;2023-08-01T02:07:19;3.27;;;2.80;;
14965;SDS011;7577;45.226;5.798;2023-08-01T02:09:49;2.83;;;2.37;;
14965;SDS011;7577;45.226;5.798;2023-08-01T02:12:19;3.70;;;2.70;;
14965;SDS011;7577;45.226;5.798;2023-08-01T02:14:49;3.00;;;2.60;;
14965;SDS011;7577;45.226;5.798;2023-08-01T02:17:19;3.43;;;2.53;;
14965;SDS011;7577;45.226;5.798;2023-08-01T02:19:49;3.10;;;2.50;;
14965;SDS011;7577;45.226;5.798;2023-08-01T02:22:19;3.27;;;2.70;;
14965;SDS011;7577;45.226;5.798;2023-08-01T02:24:48;3.00;;;2.50;;
14965;SDS011;7577;45.226;5.798;2023-08-01T02:27:19;4.23;;;2.60;;
14965;SDS011;7577;45.226;5.798;2023-08-01T02:29:49;2.53;;;2.23;;
14965;SDS011;7577;45.226;5.798;2023-08-01T02:32:19;2.60;;;2.40;;
14965;SDS011;7577;45.226;5.798;2023-08-01T02:34:49;2.93;;;2.50;;
14965;SDS011;7577;45.226;5.798;2023-08-01T02:37:19;2.57;;;2.37;;
14965;SDS011;7577;45.226;5.798;2023-08-01T02:39:49;2.87;;;2.63;;
14965;SDS011;7577;45.226;5.798;2023-08-01T02:42:20;2.57;;;2.27;;
14965;SDS011;7577;45.226;5.798;2023-08-01T02:44:50;3.07;;;2.67;;
14965;SDS011;7577;45.226;5.798;2023-08-01T02:47:20;3.60;;;2.50;;
14965;SDS011;7577;45.226;5.798;2023-08-01T02:49:50;3.07;;;2.50;;
14965;SDS011;7577;45.226;5.798;2023-08-01T02:52:20;2.80;;;2.30;;
14965;SDS011;7577;45.226;5.798;2023-08-01T02:54:50;3.27;;;2.80;;
14965;SDS011;7577;45.226;5.798;2023-08-01T02:57:20;3.07;;;2.50;;
14965;SDS011;7577;45.226;5.798;2023-08-01T02:59:50;2.67;;;2.30;;
14965;SDS011;7577;45.226;5.798;2023-08-01T03:02:21;3.40;;;2.63;;
14965;SDS011;7577;45.226;5.798;2023-08-01T03:04:51;2.57;;;2.37;;
14965;SDS011;7577;45.226;5.798;2023-08-01T03:07:21;2.60;;;2.40;;
14965;SDS011;7577;45.226;5.798;2023-08-01T03:09:51;2.80;;;2.50;;
14965;SDS011;7577;45.226;5.798;2023-08-01T03:12:22;3.03;;;2.50;;
14965;SDS011;7577;45.226;5.798;2023-08-01T03:14:52;3.27;;;2.60;;
14965;SDS011;7577;45.226;5.798;2023-08-01T03:17:22;3.43;;;2.60;;
14965;SDS011;7577;45.226;5.798;2023-08-01T03:19:52;3.00;;;2.60;;
14965;SDS011;7577;45.226;5.798;2023-08-01T03:22:22;3.73;;;2.43;;
14965;SDS011;7577;45.226;5.798;2023-08-01T03:25:00;3.10;;;2.33;;
14965;SDS011;7577;45.226;5.798;2023-08-01T03:27:31;2.50;;;2.30;;
14965;SDS011;7577;45.226;5.798;2023-08-01T03:30:02;3.53;;;2.53;;
14965;SDS011;7577;45.226;5.798;2023-08-01T03:32:35;2.57;;;2.13;;
14965;SDS011;7577;45.226;5.798;2023-08-01T03:35:07;3.17;;;2.33;;
14965;SDS011;7577;45.226;5.798;2023-08-01T03:37:44;3.07;;;2.40;;
14965;SDS011;7577;45.226;5.798;2023-08-01T03:40:15;2.33;;;2.13;;
14965;SDS011;7577;45.226;5.798;2023-08-01T03:42:47;2.97;;;2.47;;
14965;SDS011;7577;45.226;5.798;2023-08-01T03:45:17;2.50;;;2.20;;
14965;SDS011;7577;45.226;5.798;2023-08-01T03:47:47;2.77;;;2.47;;
14965;SDS011;7577;45.226;5.798;2023-08-01T03:50:17;3.33;;;2.70;;
14965;SDS011;7577;45.226;5.798;2023-08-01T03:52:48;3.23;;;2.70;;
14965;SDS011;7577;45.226;5.798;2023-08-01T03:55:19;3.17;;;2.30;;
14965;SDS011;7577;45.226;5.798;2023-08-01T03:57:57;4.67;;;2.57;;
14965;SDS011;7577;45.226;5.798;2023-08-01T04:00:28;3.57;;;2.77;;
14965;SDS011;7577;45.226;5.798;2023-08-01T04:02:59;3.83;;;2.70;;
14965;SDS011;7577;45.226;5.798;2023-08-01T04:05:30;3.57;;;2.40;;
14965;SDS011;7577;45.226;5.798;2023-08-01T04:08:01;2.90;;;2.60;;
14965;SDS011;7577;45.226;5.798;2023-08-01T04:10:32;4.73;;;2.90;;
14965;SDS011;7577;45.226;5.798;2023-08-01T04:13:02;3.23;;;2.40;;
14965;SDS011;7577;45.226;5.798;2023-08-01T04:15:32;3.10;;;2.70;;
14965;SDS011;7577;45.226;5.798;2023-08-01T04:18:02;3.43;;;2.87;;
14965;SDS011;7577;45.226;5.798;2023-08-01T04:20:32;3.37;;;2.50;;
14965;SDS011;7577;45.226;5.798;2023-08-01T04:23:02;3.60;;;2.40;;
14965;SDS011;7577;45.226;5.798;2023-08-01T04:25:43;2.90;;;2.60;;
14965;SDS011;7577;45.226;5.798;2023-08-01T04:28:13;4.03;;;2.70;;
14965;SDS011;7577;45.226;5.798;2023-08-01T04:30:48;3.23;;;2.60;;
14965;SDS011;7577;45.226;5.798;2023-08-01T04:33:19;3.87;;;2.60;;
14965;SDS011;7577;45.226;5.798;2023-08-01T04:35:49;2.77;;;2.40;;
14965;SDS011;7577;45.226;5.798;2023-08-01T04:38:19;3.50;;;2.60;;
14965;SDS011;7577;45.226;5.798;2023-08-01T04:40:49;3.00;;;2.47;;
14965;SDS011;7577;45.226;5.798;2023-08-01T04:43:19;2.93;;;2.33;;
14965;SDS011;7577;45.226;5.798;2023-08-01T04:45:49;3.07;;;2.77;;
14965;SDS011;7577;45.226;5.798;2023-08-01T04:48:19;3.30;;;3.00;;
14965;SDS011;7577;45.226;5.798;2023-08-01T04:50:49;2.80;;;2.50;;
14965;SDS011;7577;45.226;5.798;2023-08-01T04:53:19;2.80;;;2.30;;
14965;SDS011;7577;45.226;5.798;2023-08-01T04:55:49;2.67;;;2.40;;
14965;SDS011;7577;45.226;5.798;2023-08-01T04:58:20;3.23;;;2.80;;
14965;SDS011;7577;45.226;5.798;2023-08-01T05:00:50;3.20;;;2.77;;
14965;SDS011;7577;45.226;5.798;2023-08-01T05:03:20;2.90;;;2.40;;
14965;SDS011;7577;45.226;5.798;2023-08-01T05:05:50;3.40;;;2.60;;
14965;SDS011;7577;45.226;5.798;2023-08-01T05:08:21;3.13;;;2.60;;
14965;SDS011;7577;45.226;5.798;2023-08-01T05:10:51;2.67;;;2.40;;
14965;SDS011;7577;45.226;5.798;2023-08-01T05:13:21;3.57;;;2.60;;
14965;SDS011;7577;45.226;5.798;2023-08-01T05:15:51;3.03;;;2.60;;
14965;SDS011;7577;45.226;5.798;2023-08-01T05:18:20;2.90;;;2.50;;
14965;SDS011;7577;45.226;5.798;2023-08-01T05:20:50;2.90;;;2.60;;
14965;SDS011;7577;45.226;5.798;2023-08-01T05:23:28;2.60;;;2.40;;
14965;SDS011;7577;45.226;5.798;2023-08-01T05:25:58;3.07;;;2.50;;
14965;SDS011;7577;45.226;5.798;2023-08-01T05:28:28;3.00;;;2.67;;
14965;SDS011;7577;45.226;5.798;2023-08-01T05:30:58;3.60;;;2.60;;
14965;SDS011;7577;45.226;5.798;2023-08-01T05:33:28;3.70;;;2.30;;
14965;SDS011;7577;45.226;5.798;2023-08-01T05:35:58;3.00;;;2.63;;
14965;SDS011;7577;45.226;5.798;2023-08-01T05:38:29;2.57;;;2.37;;
14965;SDS011;7577;45.226;5.798;2023-08-01T05:40:59;2.70;;;2.37;;
14965;SDS011;7577;45.226;5.798;2023-08-01T05:43:29;2.73;;;2.47;;
14965;SDS011;7577;45.226;5.798;2023-08-01T05:46:00;2.70;;;2.50;;
14965;SDS011;7577;45.226;5.798;2023-08-01T05:48:30;4.17;;;2.90;;
14965;SDS011;7577;45.226;5.798;2023-08-01T05:51:00;2.70;;;2.50;;
14965;SDS011;7577;45.226;5.798;2023-08-01T05:53:30;4.00;;;2.63;;
14965;SDS011;7577;45.226;5.798;2023-08-01T05:56:00;3.43;;;2.73;;
14965;SDS011;7577;45.226;5.798;2023-08-01T05:58:31;4.23;;;2.63;;
14965;SDS011;7577;45.226;5.798;2023-08-01T06:01:01;3.33;;;2.97;;
14965;SDS011;7577;45.226;5.798;2023-08-01T06:03:32;3.60;;;2.63;;
14965;SDS011;7577;45.226;5.798;2023-08-01T06:06:02;4.60;;;2.80;;
14965;SDS011;7577;45.226;5.798;2023-08-01T06:08:32;3.00;;;2.70;;
14965;SDS011;7577;45.226;5.798;2023-08-01T06:11:02;4.23;;;2.80;;
14965;SDS011;7577;45.226;5.798;2023-08-01T06:13:32;2.67;;;2.47;;
14965;SDS011;7577;45.226;5.798;2023-08-01T06:16:10;3.07;;;2.40;;
14965;SDS011;7577;45.226;5.798;2023-08-01T06:18:40;3.03;;;2.40;;
14965;SDS011;7577;45.226;5.798;2023-08-01T06:21:17;3.47;;;2.40;;
14965;SDS011;7577;45.226;5.798;2023-08-01T06:23:48;3.10;;;2.80;;
14965;SDS011;7577;45.226;5.798;2023-08-01T06:26:18;3.20;;;2.37;;
14965;SDS011;7577;45.226;5.798;2023-08-01T06:28:48;3.00;;;2.50;;
14965;SDS011;7577;45.226;5.798;2023-08-01T06:31:20;3.03;;;2.23;;
14965;SDS011;7577;45.226;5.798;2023-08-01T06:33:50;3.83;;;2.80;;
14965;SDS011;7577;45.226;5.798;2023-08-01T06:36:20;3.70;;;2.70;;
14965;SDS011;7577;45.226;5.798;2023-08-01T06:38:50;3.23;;;2.40;;
14965;SDS011;7577;45.226;5.798;2023-08-01T06:41:20;4.03;;;2.80;;
14965;SDS011;7577;45.226;5.798;2023-08-01T06:43:50;3.63;;;2.67;;
14965;SDS011;7577;45.226;5.798;2023-08-01T06:46:20;3.30;;;2.60;;
14965;SDS011;7577;45.226;5.798;2023-08-01T06:48:58;3.60;;;2.60;;
14965;SDS011;7577;45.226;5.798;2023-08-01T06:51:28;2.83;;;2.57;;
14965;SDS011;7577;45.226;5.798;2023-08-01T06:53:58;2.83;;;2.53;;
14965;SDS011;7577;45.226;5.798;2023-08-01T06:56:29;3.23;;;2.80;;
14965;SDS011;7577;45.226;5.798;2023-08-01T06:58:59;4.30;;;2.70;;
14965;SDS011;7577;45.226;5.798;2023-08-01T07:01:29;5.13;;;2.67;;
14965;SDS011;7577;45.226;5.798;2023-08-01T07:04:00;4.47;;;2.60;;
14965;SDS011;7577;45.226;5.798;2023-08-01T07:06:30;3.23;;;2.67;;
14965;SDS011;7577;45.226;5.798;2023-08-01T07:09:00;3.20;;;2.43;;
14965;SDS011;7577;45.226;5.798;2023-08-01T07:11:30;3.03;;;2.40;;
14965;SDS011;7577;45.226;5.798;2023-08-01T07:14:00;3.40;;;2.70;;
14965;SDS011;7577;45.226;5.798;2023-08-01T07:16:30;3.57;;;2.13;;
14965;SDS011;7577;45.226;5.798;2023-08-01T07:19:01;3.97;;;2.50;;
14965;SDS011;7577;45.226;5.798;2023-08-01T07:21:42;3.30;;;2.30;;
14965;SDS011;7577;45.226;5.798;2023-08-01T07:24:15;3.97;;;2.90;;
14965;SDS011;7577;45.226;5.798;2023-08-01T07:26:46;4.90;;;2.87;;
14965;SDS011;7577;45.226;5.798;2023-08-01T07:29:16;6.63;;;2.80;;
14965;SDS011;7577;45.226;5.798;2023-08-01T07:31:46;4.47;;;2.70;;
14965;SDS011;7577;45.226;5.798;2023-08-01T07:34:16;3.50;;;2.40;;
14965;SDS011;7577;45.226;5.798;2023-08-01T07:36:47;3.43;;;2.60;;
14965;SDS011;7577;45.226;5.798;2023-08-01T07:39:18;5.53;;;2.90;;
14965;SDS011;7577;45.226;5.798;2023-08-01T07:41:49;2.67;;;2.20;;
14965;SDS011;7577;45.226;5.798;2023-08-01T07:44:19;4.10;;;2.53;;
14965;SDS011;7577;45.226;5.798;2023-08-01T07:46:49;3.10;;;2.20;;
14965;SDS011;7577;45.226;5.798;2023-08-01T07:49:19;3.33;;;2.90;;
14965;SDS011;7577;45.226;5.798;2023-08-01T07:51:49;4.33;;;2.90;;
14965;SDS011;7577;45.226;5.798;2023-08-01T07:54:19;3.50;;;2.70;;
14965;SDS011;7577;45.226;5.798;2023-08-01T07:56:49;5.83;;;2.90;;
14965;SDS011;7577;45.226;5.798;2023-08-01T07:59:19;4.80;;;2.53;;
14965;SDS011;7577;45.226;5.798;2023-08-01T08:01:49;3.10;;;2.80;;
14965;SDS011;7577;45.226;5.798;2023-08-01T08:04:20;4.33;;;2.80;;
14965;SDS011;7577;45.226;5.798;2023-08-01T08:06:50;4.23;;;2.60;;
14965;SDS011;7577;45.226;5.798;2023-08-01T08:09:22;5.37;;;2.83;;
14965;SDS011;7577;45.226;5.798;2023-08-01T08:11:52;3.87;;;2.90;;
14965;SDS011;7577;45.226;5.798;2023-08-01T08:14:24;3.13;;;2.83;;
14965;SDS011;7577;45.226;5.798;2023-08-01T08:16:54;3.67;;;2.70;;
14965;SDS011;7577;45.226;5.798;2023-08-01T08:19:34;3.10;;;2.70;;
14965;SDS011;7577;45.226;5.798;2023-08-01T08:22:05;3.93;;;2.90;;
14965;SDS011;7577;45.226;5.798;2023-08-01T08:24:36;3.93;;;2.80;;
14965;SDS011;7577;45.226;5.798;2023-08-01T08:27:07;4.63;;;2.60;;
14965;SDS011;7577;45.226;5.798;2023-08-01T08:29:37;4.20;;;2.73;;
14965;SDS011;7577;45.226;5.798;2023-08-01T08:32:10;3.17;;;2.77;;
14965;SDS011;7577;45.226;5.798;2023-08-01T08:34:40;3.63;;;2.80;;
14965;SDS011;7577;45.226;5.798;2023-08-01T08:37:10;4.53;;;2.73;;
14965;SDS011;7577;45.226;5.798;2023-08-01T08:39:40;3.20;;;2.53;;
14965;SDS011;7577;45.226;5.798;2023-08-01T08:42:10;3.03;;;2.73;;
14965;SDS011;7577;45.226;5.798;2023-08-01T08:44:42;4.67;;;2.57;;
14965;SDS011;7577;45.226;5.798;2023-08-01T08:47:13;5.10;;;2.90;;
14965;SDS011;7577;45.226;5.798;2023-08-01T08:49:52;4.50;;;2.80;;
14965;SDS011;7577;45.226;5.798;2023-08-01T08:52:25;3.40;;;3.03;;
14965;SDS011;7577;45.226;5.798;2023-08-01T08:54:55;5.67;;;2.80;;
14965;SDS011;7577;45.226;5.798;2023-08-01T08:57:26;4.83;;;2.90;;
14965;SDS011;7577;45.226;5.798;2023-08-01T08:59:58;4.43;;;2.70;;
14965;SDS011;7577;45.226;5.798;2023-08-01T09:02:32;4.17;;;2.60;;
14965;SDS011;7577;45.226;5.798;2023-08-01T09:05:03;3.40;;;2.70;;
14965;SDS011;7577;45.226;5.798;2023-08-01T09:07:33;5.17;;;3.03;;
14965;SDS011;7577;45.226;5.798;2023-08-01T09:10:07;3.70;;;2.77;;
14965;SDS011;7577;45.226;5.798;2023-08-01T09:12:38;4.57;;;2.80;;
14965;SDS011;7577;45.226;5.798;2023-08-01T09:15:10;4.43;;;2.90;;
14965;SDS011;7577;45.226;5.798;2023-08-01T09:17:48;3.37;;;2.87;;
14965;SDS011;7577;45.226;5.798;2023-08-01T09:20:19;4.27;;;2.70;;
14965;SDS011;7577;45.226;5.798;2023-08-01T09:22:57;3.40;;;2.90;;
14965;SDS011;7577;45.226;5.798;2023-08-01T09:25:33;4.07;;;3.27;;
14965;SDS011;7577;45.226;5.798;2023-08-01T09:28:04;3.13;;;2.40;;
14965;SDS011;7577;45.226;5.798;2023-08-01T09:30:46;4.63;;;2.70;;
14965;SDS011;7577;45.226;5.798;2023-08-01T09:33:18;4.43;;;3.10;;
14965;SDS011;7577;45.226;5.798;2023-08-01T09:35:49;4.60;;;2.87;;
14965;SDS011;7577;45.226;5.798;2023-08-01T09:38:19;5.27;;;3.10;;
14965;SDS011;7577;45.226;5.798;2023-08-01T09:40:50;4.17;;;2.93;;
14965;SDS011;7577;45.226;5.798;2023-08-01T09:43:20;3.57;;;2.83;;
14965;SDS011;7577;45.226;5.798;2023-08-01T09:45:51;3.30;;;2.97;;
14965;SDS011;7577;45.226;5.798;2023-08-01T09:48:23;5.37;;;2.70;;
14965;SDS011;7577;45.226;5.798;2023-08-01T09:51:04;3.43;;;3.03;;
14965;SDS011;7577;45.226;5.798;2023-08-01T09:53:35;5.17;;;3.00;;
14965;SDS011;7577;45.226;5.798;2023-08-01T09:56:07;5.00;;;3.00;;
14965;SDS011;7577;45.226;5.798;2023-08-01T09:58:38;3.33;;;2.80;;
14965;SDS011;7577;45.226;5.798;2023-08-01T10:01:10;3.80;;;3.30;;
14965;SDS011;7577;45.226;5.798;2023-08-01T10:03:43;5.53;;;2.80;;
14965;SDS011;7577;45.226;5.798;2023-08-01T10:06:16;6.07;;;3.30;;
14965;SDS011;7577;45.226;5.798;2023-08-01T10:08:47;3.83;;;2.90;;
14965;SDS011;7577;45.226;5.798;2023-08-01T10:11:19;4.67;;;3.17;;
14965;SDS011;7577;45.226;5.798;2023-08-01T10:13:51;4.40;;;3.13;;
14965;SDS011;7577;45.226;5.798;2023-08-01T10:16:21;4.63;;;3.03;;
14965;SDS011;7577;45.226;5.798;2023-08-01T10:18:52;3.43;;;3.13;;
14965;SDS011;7577;45.226;5.798;2023-08-01T10:21:25;4.53;;;3.07;;
14965;SDS011;7577;45.226;5.798;2023-08-01T10:23:56;3.90;;;3.00;;
14965;SDS011;7577;45.226;5.798;2023-08-01T10:26:28;3.63;;;3.03;;
14965;SDS011;7577;45.226;5.798;2023-08-01T10:29:00;3.90;;;3.27;;
14965;SDS011;7577;45.226;5.798;2023-08-01T10:31:30;5.80;;;3.07;;
14965;SDS011;7577;45.226;5.798;2023-08-01T10:34:04;3.10;;;2.80;;
14965;SDS011;7577;45.226;5.798;2023-08-01T10:36:35;3.60;;;2.67;;
14965;SDS011;7577;45.226;5.798;2023-08-01T10:39:20;3.50;;;2.90;;
14965;SDS011;7577;45.226;5.798;2023-08-01T10:41:57;4.23;;;3.00;;
14965;SDS011;7577;45.226;5.798;2023-08-01T10:44:28;3.07;;;2.57;;
14965;SDS011;7577;45.226;5.798;2023-08-01T10:47:06;4.43;;;2.97;;
14965;SDS011;7577;45.226;5.798;2023-08-01T10:49:37;4.87;;;3.00;;
14965;SDS011;7577;45.226;5.798;2023-08-01T10:52:16;3.70;;;2.97;;
14965;SDS011;7577;45.226;5.798;2023-08-01T10:54:46;3.83;;;2.97;;
14965;SDS011;7577;45.226;5.798;2023-08-01T10:57:18;5.17;;;3.23;;
14965;SDS011;7577;45.226;5.798;2023-08-01T10:59:48;4.17;;;3.10;;
14965;SDS011;7577;45.226;5.798;2023-08-01T11:02:22;3.87;;;2.87;;
14965;SDS011;7577;45.226;5.798;2023-08-01T11:04:57;4.40;;;2.97;;
14965;SDS011;7577;45.226;5.798;2023-08-01T11:07:28;3.17;;;2.87;;
14965;SDS011;7577;45.226;5.798;2023-08-01T11:10:06;3.33;;;3.00;;
14965;SDS011;7577;45.226;5.798;2023-08-01T11:12:38;3.13;;;2.77;;
14965;SDS011;7577;45.226;5.798;2023-08-01T11:15:10;3.73;;;3.07;;
14965;SDS011;7577;45.226;5.798;2023-08-01T11:17:42;3.77;;;3.20;;
14965;SDS011;7577;45.226;5.798;2023-08-01T11:20:20;3.37;;;3.07;;
14965;SDS011;7577;45.226;5.798;2023-08-01T11:22:53;4.20;;;2.57;;
14965;SDS011;7577;45.226;5.798;2023-08-01T11:25:34;2.97;;;2.67;;
14965;SDS011;7577;45.226;5.798;2023-08-01T11:28:08;3.57;;;2.77;;
14965;SDS011;7577;45.226;5.798;2023-08-01T11:30:39;3.27;;;2.80;;
14965;SDS011;7577;45.226;5.798;2023-08-01T11:33:14;3.40;;;2.90;;
14965;SDS011;7577;45.226;5.798;2023-08-01T11:35:44;3.73;;;3.00;;
14965;SDS011;7577;45.226;5.798;2023-08-01T11:38:14;3.80;;;3.00;;
14965;SDS011;7577;45.226;5.798;2023-08-01T11:40:44;3.77;;;3.00;;
14965;SDS011;7577;45.226;5.798;2023-08-01T11:43:17;3.57;;;3.10;;
14965;SDS011;7577;45.226;5.798;2023-08-01T11:45:50;4.97;;;3.00;;
14965;SDS011;7577;45.226;5.798;2023-08-01T11:48:22;3.07;;;2.77;;
14965;SDS011;7577;45.226;5.798;2023-08-01T11:50:56;3.83;;;2.90;;
14965;SDS011;7577;45.226;5.798;2023-08-01T11:53:27;3.10;;;2.80;;
14965;SDS011;7577;45.226;5.798;2023-08-01T11:56:00;3.97;;;2.77;;
14965;SDS011;7577;45.226;5.798;2023-08-01T11:58:30;2.90;;;2.57;;
14965;SDS011;7577;45.226;5.798;2023-08-01T12:01:05;3.17;;;2.73;;
14965;SDS011;7577;45.226;5.798;2023-08-01T12:03:44;3.80;;;2.90;;
14965;SDS011;7577;45.226;5.798;2023-08-01T12:06:23;3.37;;;2.83;;
14965;SDS011;7577;45.226;5.798;2023-08-01T12:08:53;3.93;;;2.90;;
14965;SDS011;7577;45.226;5.798;2023-08-01T12:11:25;3.07;;;2.70;;
14965;SDS011;7577;45.226;5.798;2023-08-01T12:14:01;3.30;;;3.00;;
14965;SDS011;7577;45.226;5.798;2023-08-01T12:16:31;3.73;;;2.90;;
14965;SDS011;7577;45.226;5.798;2023-08-01T12:19:02;3.73;;;3.03;;
14965;SDS011;7577;45.226;5.798;2023-08-01T12:21:32;3.30;;;2.70;;
14965;SDS011;7577;45.226;5.798;2023-08-01T12:24:04;3.27;;;2.60;;
14965;SDS011;7577;45.226;5.798;2023-08-01T12:26:42;3.20;;;2.50;;
14965;SDS011;7577;45.226;5.798;2023-08-01T12:29:12;2.77;;;2.30;;
14965;SDS011;7577;45.226;5.798;2023-08-01T12:31:41;3.67;;;2.90;;
14965;SDS011;7577;45.226;5.798;2023-08-01T12:34:13;3.10;;;2.80;;
14965;SDS011;7577;45.226;5.798;2023-08-01T12:36:43;3.57;;;2.80;;
14965;SDS011;7577;45.226;5.798;2023-08-01T12:39:13;2.90;;;2.60;;
14965;SDS011;7577;45.226;5.798;2023-08-01T12:41:43;2.47;;;2.10;;
14965;SDS011;7577;45.226;5.798;2023-08-01T12:44:13;2.60;;;2.40;;
14965;SDS011;7577;45.226;5.798;2023-08-01T12:46:44;2.63;;;2.43;;
14965;SDS011;7577;45.226;5.798;2023-08-01T12:49:15;2.93;;;2.63;;
14965;SDS011;7577;45.226;5.798;2023-08-01T12:51:55;3.23;;;2.60;;
14965;SDS011;7577;45.226;5.798;2023-08-01T12:54:26;3.10;;;2.70;;
14965;SDS011;7577;45.226;5.798;2023-08-01T12:56:56;2.83;;;2.53;;
14965;SDS011;7577;45.226;5.798;2023-08-01T12:59:26;2.50;;;2.10;;
14965;SDS011;7577;45.226;5.798;2023-08-01T13:01:56;2.87;;;2.40;;
14965;SDS011;7577;45.226;5.798;2023-08-01T13:04:26;2.90;;;2.20;;
14965;SDS011;7577;45.226;5.798;2023-08-01T13:06:56;3.53;;;2.40;;
14965;SDS011;7577;45.226;5.798;2023-08-01T13:09:26;3.37;;;2.53;;
14965;SDS011;7577;45.226;5.798;2023-08-01T13:11:56;2.93;;;2.50;;
14965;SDS011;7577;45.226;5.798;2023-08-01T13:14:27;2.60;;;2.03;;
14965;SDS011;7577;45.226;5.798;2023-08-01T13:16:57;3.20;;;2.27;;
14965;SDS011;7577;45.226;5.798;2023-08-01T13:19:34;2.90;;;2.40;;
14965;SDS011;7577;45.226;5.798;2023-08-01T13:22:07;2.47;;;2.20;;
14965;SDS011;7577;45.226;5.798;2023-08-01T13:24:37;3.00;;;2.27;;
14965;SDS011;7577;45.226;5.798;2023-08-01T13:27:07;2.87;;;2.10;;
14965;SDS011;7577;45.226;5.798;2023-08-01T13:29:38;2.87;;;2.40;;
14965;SDS011;7577;45.226;5.798;2023-08-01T13:32:08;3.60;;;2.30;;
14965;SDS011;7577;45.226;5.798;2023-08-01T13:34:38;3.40;;;2.40;;
14965;SDS011;7577;45.226;5.798;2023-08-01T13:37:08;2.50;;;2.30;;
14965;SDS011;7577;45.226;5.798;2023-08-01T13:39:40;2.83;;;2.33;;
14965;SDS011;7577;45.226;5.798;2023-08-01T13:42:10;2.97;;;2.40;;
14965;SDS011;7577;45.226;5.798;2023-08-01T13:44:40;2.50;;;2.30;;
14965;SDS011;7577;45.226;5.798;2023-08-01T13:47:11;2.60;;;2.40;;
14965;SDS011;7577;45.226;5.798;2023-08-01T13:49:41;2.80;;;2.30;;
14965;SDS011;7577;45.226;5.798;2023-08-01T13:52:11;3.60;;;2.63;;
14965;SDS011;7577;45.226;5.798;2023-08-01T13:54:41;2.47;;;2.03;;
14965;SDS011;7577;45.226;5.798;2023-08-01T13:57:11;3.70;;;2.70;;
14965;SDS011;7577;45.226;5.798;2023-08-01T13:59:42;2.43;;;2.23;;
14965;SDS011;7577;45.226;5.798;2023-08-01T14:02:12;2.27;;;1.83;;
14965;SDS011;7577;45.226;5.798;2023-08-01T14:04:51;2.30;;;2.10;;
14965;SDS011;7577;45.226;5.798;2023-08-01T14:07:21;3.17;;;2.23;;
14965;SDS011;7577;45.226;5.798;2023-08-01T14:09:52;2.83;;;2.33;;
14965;SDS011;7577;45.226;5.798;2023-08-01T14:12:22;2.43;;;2.10;;
14965;SDS011;7577;45.226;5.798;2023-08-01T14:14:53;2.50;;;2.03;;
14965;SDS011;7577;45.226;5.798;2023-08-01T14:17:23;3.13;;;2.23;;
14965;SDS011;7577;45.226;5.798;2023-08-01T14:19:54;2.40;;;2.10;;
14965;SDS011;7577;45.226;5.798;2023-08-01T14:22:32;2.53;;;2.00;;
14965;SDS011;7577;45.226;5.798;2023-08-01T14:25:03;2.67;;;1.93;;
14965;SDS011;7577;45.226;5.798;2023-08-01T14:27:34;3.67;;;2.40;;
14965;SDS011;7577;45.226;5.798;2023-08-01T14:30:06;2.60;;;2.20;;
14965;SDS011;7577;45.226;5.798;2023-08-01T14:32:37;2.03;;;1.83;;
14965;SDS011;7577;45.226;5.798;2023-08-01T14:35:08;2.47;;;2.00;;
14965;SDS011;7577;45.226;5.798;2023-08-01T14:37:39;2.70;;;2.30;;
14965;SDS011;7577;45.226;5.798;2023-08-01T14:40:11;2.13;;;1.93;;
14965;SDS011;7577;45.226;5.798;2023-08-01T14:42:41;2.93;;;1.90;;
14965;SDS011;7577;45.226;5.798;2023-08-01T14:45:11;2.57;;;2.00;;
14965;SDS011;7577;45.226;5.798;2023-08-01T14:47:42;2.30;;;1.80;;
14965;SDS011;7577;45.226;5.798;2023-08-01T14:50:13;2.37;;;2.17;;
14965;SDS011;7577;45.226;5.798;2023-08-01T14:52:51;2.90;;;2.13;;
14965;SDS011;7577;45.226;5.798;2023-08-01T14:55:22;2.90;;;2.10;;
14965;SDS011;7577;45.226;5.798;2023-08-01T14:57:52;2.20;;;2.00;;
14965;SDS011;7577;45.226;5.798;2023-08-01T15:00:21;2.40;;;1.90;;
14965;SDS011;7577;45.226;5.798;2023-08-01T15:02:51;2.10;;;1.90;;
14965;SDS011;7577;45.226;5.798;2023-08-01T15:05:21;2.20;;;2.00;;
14965;SDS011;7577;45.226;5.798;2023-08-01T15:07:53;2.40;;;2.07;;
14965;SDS011;7577;45.226;5.798;2023-08-01T15:10:23;2.53;;;2.10;;
14965;SDS011;7577;45.226;5.798;2023-08-01T15:12:53;2.33;;;1.90;;
14965;SDS011;7577;45.226;5.798;2023-08-01T15:15:23;2.43;;;2.20;;
14965;SDS011;7577;45.226;5.798;2023-08-01T15:17:53;2.00;;;1.80;;
14965;SDS011;7577;45.226;5.798;2023-08-01T15:20:34;2.47;;;2.00;;
14965;SDS011;7577;45.226;5.798;2023-08-01T15:23:06;2.20;;;1.80;;
14965;SDS011;7577;45.226;5.798;2023-08-01T15:25:36;2.60;;;1.97;;